createdAt,value
2023-03-16T00:00:14.378Z,47.80
2023-03-16T00:02:41.916Z,47.68
2023-03-16T00:05:09.389Z,47.88
2023-03-16T00:07:35.871Z,48.38
2023-03-16T00:10:03.679Z,48.01
2023-03-16T00:12:34.721Z,48.32
2023-03-16T00:15:02.164Z,48.20
2023-03-16T00:17:28.710Z,48.23
2023-03-16T00:19:55.974Z,48.31
2023-03-16T00:22:29.487Z,48.34
2023-03-16T00:24:56.707Z,48.39
2023-03-16T00:27:24.700Z,48.56
2023-03-16T00:29:55.824Z,48.44
2023-03-16T00:32:27.085Z,48.25
2023-03-16T00:34:53.835Z,48.29
2023-03-16T00:37:23.777Z,48.59
2023-03-16T00:39:51.378Z,48.44
2023-03-16T00:42:18.615Z,48.22
2023-03-16T00:44:47.579Z,48.05
2023-03-16T00:47:17.039Z,48.44
2023-03-16T00:49:44.592Z,48.09
2023-03-16T00:52:15.173Z,48.22
2023-03-16T00:54:43.163Z,48.40
2023-03-16T00:57:10.538Z,48.04
2023-03-16T00:59:37.992Z,48.07
2023-03-16T01:02:06.116Z,48.16
2023-03-16T01:04:34.247Z,48.17
2023-03-16T01:07:00.775Z,48.35
2023-03-16T01:09:29.616Z,48.46
2023-03-16T01:11:56.109Z,48.45
2023-03-16T01:14:22.962Z,48.46
2023-03-16T01:16:49.511Z,48.19
2023-03-16T01:19:16.017Z,48.13
2023-03-16T01:21:42.831Z,48.26
2023-03-16T01:24:09.694Z,48.18
2023-03-16T01:26:36.218Z,47.94
2023-03-16T01:29:02.730Z,48.33
2023-03-16T01:31:29.524Z,48.08
2023-03-16T01:33:55.974Z,48.24
2023-03-16T01:36:22.473Z,48.30
2023-03-16T01:38:49.151Z,48.13
2023-03-16T01:41:15.885Z,48.26
2023-03-16T01:43:43.635Z,47.89
2023-03-16T01:46:10.154Z,48.20
2023-03-16T01:48:45.285Z,48.09
2023-03-16T01:51:14.752Z,48.17
2023-03-16T01:53:44.719Z,47.96
2023-03-16T01:56:13.875Z,47.90
2023-03-16T01:58:43.178Z,48.02
2023-03-16T02:01:11.227Z,48.10
2023-03-16T02:03:37.815Z,48.11
2023-03-16T02:06:11.244Z,48.11
2023-03-16T02:08:39.053Z,47.88
2023-03-16T02:11:06.226Z,47.87
2023-03-16T02:13:36.729Z,48.17
2023-03-16T02:16:05.721Z,48.16
2023-03-16T02:18:32.639Z,47.80
2023-03-16T02:21:11.333Z,48.16
2023-03-16T02:23:37.960Z,48.12
2023-03-16T02:26:25.892Z,48.16
2023-03-16T02:28:55.373Z,48.22
2023-03-16T02:31:22.536Z,47.86
2023-03-16T02:33:50.977Z,47.97
2023-03-16T02:36:18.724Z,47.96
2023-03-16T02:38:46.506Z,48.08
2023-03-16T02:41:17.714Z,47.75
2023-03-16T02:43:47.715Z,48.15
2023-03-16T02:46:15.006Z,47.97
2023-03-16T02:48:45.412Z,47.93
2023-03-16T02:51:11.959Z,47.78
2023-03-16T02:53:38.443Z,47.81
2023-03-16T02:56:05.162Z,48.06
2023-03-16T02:58:32.148Z,47.70
2023-03-16T03:00:59.097Z,48.03
2023-03-16T03:03:25.761Z,47.73
2023-03-16T03:05:52.670Z,48.07
2023-03-16T03:08:22.914Z,48.06
2023-03-16T03:10:49.739Z,47.99
2023-03-16T03:13:16.384Z,47.76
2023-03-16T03:15:42.944Z,48.05
2023-03-16T03:18:09.472Z,47.67
2023-03-16T03:20:36.006Z,48.04
2023-03-16T03:23:03.261Z,47.68
2023-03-16T03:25:29.816Z,47.74
2023-03-16T03:27:56.522Z,48.10
2023-03-16T03:30:26.268Z,47.87
2023-03-16T03:32:53.068Z,47.86
2023-03-16T03:35:20.378Z,48.54
2023-03-16T03:37:47.382Z,48.49
2023-03-16T03:40:15.077Z,48.27
2023-03-16T03:42:42.114Z,48.35
2023-03-16T03:45:09.116Z,48.49
2023-03-16T03:47:35.585Z,48.34
2023-03-16T03:50:02.646Z,48.10
2023-03-16T03:52:29.258Z,49.19
2023-03-16T03:54:55.786Z,51.67
2023-03-16T03:57:22.339Z,51.83
2023-03-16T03:59:48.861Z,52.53
2023-03-16T04:02:15.467Z,52.98
2023-03-16T04:04:42.606Z,52.35
2023-03-16T04:07:09.111Z,52.02
2023-03-16T04:09:36.228Z,51.76
2023-03-16T04:12:03.869Z,51.36
2023-03-16T04:14:30.671Z,51.25
2023-03-16T04:16:58.189Z,51.07
2023-03-16T04:19:24.818Z,50.09
2023-03-16T04:21:51.793Z,49.17
2023-03-16T04:24:18.409Z,48.49
2023-03-16T04:26:45.401Z,48.24
2023-03-16T04:29:14.605Z,47.97
2023-03-16T04:31:42.513Z,47.52
2023-03-16T04:34:09.066Z,47.15
2023-03-16T04:36:35.522Z,47.04
2023-03-16T04:39:02.410Z,47.07
2023-03-16T04:41:28.852Z,46.80
2023-03-16T04:43:55.385Z,46.49
2023-03-16T04:46:21.839Z,46.67
2023-03-16T04:48:48.440Z,46.42
2023-03-16T04:51:14.987Z,46.69
2023-03-16T04:53:41.834Z,46.42
2023-03-16T04:56:08.475Z,46.82
2023-03-16T04:58:35.076Z,46.52
2023-03-16T05:01:02.365Z,46.86
2023-03-16T05:03:28.926Z,46.89
2023-03-16T05:05:55.459Z,46.91
2023-03-16T05:08:22.034Z,46.77
2023-03-16T05:10:48.709Z,46.83
2023-03-16T05:13:15.300Z,46.89
2023-03-16T05:15:41.934Z,46.72
2023-03-16T05:18:08.435Z,47.01
2023-03-16T05:20:34.979Z,47.04
2023-03-16T05:23:01.877Z,46.89
2023-03-16T05:25:28.396Z,46.81
2023-03-16T05:27:54.876Z,47.13
2023-03-16T05:30:21.453Z,47.00
2023-03-16T05:32:47.977Z,47.19
2023-03-16T05:35:14.522Z,47.36
2023-03-16T05:37:41.720Z,47.28
2023-03-16T05:40:16.896Z,47.32
2023-03-16T05:42:47.490Z,47.51
2023-03-16T05:45:14.986Z,47.26
2023-03-16T05:47:42.083Z,47.27
2023-03-16T05:50:11.478Z,47.60
2023-03-16T05:52:38.696Z,47.72
2023-03-16T05:55:06.060Z,47.70
2023-03-16T05:57:35.714Z,47.58
2023-03-16T06:00:23.619Z,47.74
2023-03-16T06:02:53.826Z,47.88
2023-03-16T06:05:21.886Z,47.96
2023-03-16T06:07:50.174Z,48.02
2023-03-16T06:10:16.988Z,48.05
2023-03-16T06:12:43.441Z,47.74
2023-03-16T06:15:10.454Z,48.31
2023-03-16T06:17:37.617Z,48.33
2023-03-16T06:20:10.409Z,48.28
2023-03-16T06:22:38.474Z,48.34
2023-03-16T06:25:05.168Z,48.41
2023-03-16T06:27:31.607Z,48.06
2023-03-16T06:29:58.061Z,48.35
2023-03-16T06:32:24.514Z,48.51
2023-03-16T06:34:53.224Z,48.14
2023-03-16T06:37:19.638Z,48.26
2023-03-16T06:39:46.075Z,48.70
2023-03-16T06:42:12.508Z,48.52
2023-03-16T06:44:39.052Z,48.16
2023-03-16T06:47:05.593Z,48.43
2023-03-16T06:49:32.101Z,48.30
2023-03-16T06:51:58.793Z,48.24
2023-03-16T06:54:25.223Z,48.09
2023-03-16T06:56:52.381Z,48.02
2023-03-16T06:59:18.803Z,47.88
2023-03-16T07:01:45.264Z,48.06
2023-03-16T07:04:12.851Z,48.02
2023-03-16T07:06:42.350Z,47.75
2023-03-16T07:09:08.809Z,47.78
2023-03-16T07:11:35.396Z,47.69
2023-03-16T07:14:02.323Z,47.75
2023-03-16T07:16:28.739Z,48.00
2023-03-16T07:18:55.331Z,47.70
2023-03-16T07:21:21.862Z,47.50
2023-03-16T07:23:48.362Z,47.54
2023-03-16T07:26:14.784Z,47.28
2023-03-16T07:28:41.478Z,47.16
2023-03-16T07:31:07.974Z,47.40
2023-03-16T07:33:35.112Z,47.29
2023-03-16T07:36:04.699Z,47.20
2023-03-16T07:38:32.540Z,47.06
2023-03-16T07:40:59.946Z,47.28
2023-03-16T07:43:26.379Z,47.17
2023-03-16T07:45:53.099Z,47.08
2023-03-16T07:48:19.881Z,46.98
2023-03-16T07:50:49.620Z,46.98
2023-03-16T07:53:16.049Z,46.69
2023-03-16T07:55:43.067Z,47.12
2023-03-16T07:58:10.802Z,46.76
2023-03-16T08:00:37.247Z,46.80
2023-03-16T08:03:03.676Z,46.78
2023-03-16T08:05:32.409Z,46.65
2023-03-16T08:07:58.924Z,47.04
2023-03-16T08:10:25.558Z,46.49
2023-03-16T08:12:52.211Z,46.40
2023-03-16T08:15:19.364Z,46.79
2023-03-16T08:17:46.702Z,46.16
2023-03-16T08:20:14.546Z,45.79
2023-03-16T08:22:46.576Z,45.25
2023-03-16T08:25:13.854Z,45.58
2023-03-16T08:27:40.353Z,46.03
2023-03-16T08:30:08.255Z,45.99
2023-03-16T08:32:34.737Z,45.27
2023-03-16T08:35:01.148Z,45.27
2023-03-16T08:37:27.591Z,45.40
2023-03-16T08:39:54.361Z,45.64
2023-03-16T08:42:21.228Z,45.20
2023-03-16T08:44:50.945Z,45.47
2023-03-16T08:47:17.984Z,45.61
2023-03-16T08:49:44.897Z,45.02
2023-03-16T08:52:12.929Z,45.42
2023-03-16T08:54:39.646Z,43.53
2023-03-16T08:57:06.106Z,44.70
2023-03-16T08:59:32.482Z,44.35
2023-03-16T09:01:59.246Z,42.16
2023-03-16T09:04:25.829Z,43.74
2023-03-16T09:07:05.802Z,43.10
2023-03-16T09:09:35.539Z,41.84
2023-03-16T09:12:03.071Z,42.07
2023-03-16T09:14:29.939Z,42.27
2023-03-16T09:16:56.690Z,41.85
2023-03-16T09:19:23.062Z,41.81
2023-03-16T09:21:49.452Z,41.79
2023-03-16T09:24:15.898Z,42.78
2023-03-16T09:26:42.799Z,42.94
2023-03-16T09:29:09.244Z,41.36
2023-03-16T09:31:36.339Z,40.51
2023-03-16T09:34:02.890Z,40.49
2023-03-16T09:36:29.300Z,40.95
2023-03-16T09:38:56.280Z,39.95
2023-03-16T09:41:40.858Z,38.05
2023-03-16T09:44:26.279Z,38.65
2023-03-16T09:46:53.234Z,37.60
2023-03-16T09:49:21.127Z,38.39
2023-03-16T09:51:51.256Z,38.64
2023-03-16T09:54:26.612Z,39.49
2023-03-16T09:56:54.516Z,37.61
2023-03-16T09:59:22.606Z,39.02
2023-03-16T10:01:48.967Z,36.53
2023-03-16T10:04:22.177Z,37.72
2023-03-16T10:06:55.854Z,37.58
2023-03-16T10:09:25.269Z,35.63
2023-03-16T10:11:56.113Z,38.72
2023-03-16T10:14:30.858Z,38.98
2023-03-16T10:17:17.037Z,37.45
2023-03-16T10:19:45.998Z,36.92
2023-03-16T10:22:18.561Z,35.83
2023-03-16T10:24:54.222Z,36.75
2023-03-16T10:27:27.156Z,38.25
2023-03-16T10:29:53.689Z,37.78
2023-03-16T10:32:20.138Z,38.73
2023-03-16T10:34:53.838Z,38.57
2023-03-16T10:37:21.536Z,38.66
2023-03-16T10:39:49.030Z,37.32
2023-03-16T10:42:17.076Z,37.58
2023-03-16T10:44:43.527Z,35.87
2023-03-16T10:47:24.285Z,37.11
2023-03-16T10:49:51.513Z,36.42
2023-03-16T10:52:17.864Z,36.56
2023-03-16T10:54:49.878Z,35.53
2023-03-16T10:57:19.229Z,38.82
2023-03-16T10:59:49.690Z,38.39
2023-03-16T11:02:17.642Z,39.37
2023-03-16T11:04:44.089Z,37.99
2023-03-16T11:07:16.347Z,37.81
2023-03-16T11:09:43.379Z,35.60
2023-03-16T11:12:15.426Z,36.81
2023-03-16T11:14:49.121Z,37.59
2023-03-16T11:17:36.922Z,35.36
2023-03-16T11:20:12.413Z,37.61
2023-03-16T11:22:40.780Z,36.48
2023-03-16T11:25:15.642Z,37.15
2023-03-16T11:27:41.999Z,38.03
2023-03-16T11:30:15.062Z,34.52
2023-03-16T11:32:43.481Z,36.81
2023-03-16T11:35:33.244Z,36.69
2023-03-16T11:38:02.435Z,37.95
2023-03-16T11:40:53.887Z,37.87
2023-03-16T11:43:27.173Z,38.09
2023-03-16T11:46:06.782Z,38.03
2023-03-16T11:48:33.429Z,37.31
2023-03-16T11:51:11.662Z,38.06
2023-03-16T11:53:39.568Z,37.92
2023-03-16T11:56:15.540Z,33.19
2023-03-16T11:58:56.319Z,32.16
2023-03-16T12:01:31.404Z,35.49
2023-03-16T12:04:13.351Z,35.56
2023-03-16T12:06:45.284Z,34.24
2023-03-16T12:09:47.187Z,34.38
2023-03-16T12:12:23.221Z,35.81
2023-03-16T12:15:16.599Z,36.58
2023-03-16T12:17:44.142Z,35.41
2023-03-16T12:20:17.209Z,36.00
2023-03-16T12:22:45.212Z,36.28
2023-03-16T12:25:22.176Z,34.57
2023-03-16T12:27:51.185Z,34.81
2023-03-16T12:30:30.346Z,33.39
2023-03-16T12:33:06.023Z,34.80
2023-03-16T12:35:35.890Z,36.03
2023-03-16T12:38:16.085Z,35.50
2023-03-16T12:40:51.602Z,34.70
2023-03-16T12:43:18.020Z,34.71
2023-03-16T12:46:04.763Z,32.04
2023-03-16T12:48:34.125Z,35.29
2023-03-16T12:51:02.292Z,33.14
2023-03-16T12:53:46.815Z,33.24
2023-03-16T12:56:20.617Z,32.02
2023-03-16T12:58:48.655Z,31.90
2023-03-16T13:01:17.029Z,31.87
2023-03-16T13:03:44.435Z,34.02
2023-03-16T13:06:22.229Z,32.92
2023-03-16T13:08:52.470Z,34.01
2023-03-16T13:11:18.917Z,32.36
2023-03-16T13:13:49.815Z,31.63
2023-03-16T13:16:27.503Z,32.31
2023-03-16T13:18:54.856Z,33.19
2023-03-16T13:21:23.029Z,31.68
2023-03-16T13:24:13.998Z,33.75
2023-03-16T13:26:52.205Z,30.48
2023-03-16T13:29:26.450Z,32.27
2023-03-16T13:31:54.200Z,33.57
2023-03-16T13:34:31.235Z,32.58
2023-03-16T13:36:59.052Z,34.47
2023-03-16T13:39:27.644Z,32.47
2023-03-16T13:41:59.610Z,33.37
2023-03-16T13:44:26.765Z,32.66
2023-03-16T13:46:53.229Z,31.16
2023-03-16T13:49:20.125Z,31.73
2023-03-16T13:51:47.297Z,32.18
2023-03-16T13:54:21.777Z,33.62
2023-03-16T13:56:49.098Z,32.27
2023-03-16T13:59:15.760Z,31.91
2023-03-16T14:01:46.317Z,32.89
2023-03-16T14:04:18.718Z,34.07
2023-03-16T14:06:52.476Z,32.26
2023-03-16T14:09:21.780Z,32.96
2023-03-16T14:11:48.872Z,32.37
2023-03-16T14:14:16.908Z,32.81
2023-03-16T14:16:43.862Z,32.15
2023-03-16T14:19:19.355Z,33.89
2023-03-16T14:21:46.278Z,32.88
2023-03-16T14:24:21.191Z,32.37
2023-03-16T14:26:48.125Z,32.07
2023-03-16T14:29:18.733Z,33.20
2023-03-16T14:31:45.907Z,32.42
2023-03-16T14:34:27.096Z,31.60
2023-03-16T14:36:55.941Z,32.50
2023-03-16T14:39:27.122Z,33.15
2023-03-16T23:50:36.958Z,37.95
2023-03-16T23:53:03.629Z,37.89
2023-03-16T23:55:30.144Z,37.55
2023-03-16T23:57:56.585Z,37.71
